sensor_id;sensor_type;location;lat;lon;timestamp;P1;durP1;ratioP1;P2;durP2;ratioP2
13347;SDS011;6743;49.934;9.138;2023-06-01T00:01:32;1.05;;;0.95;;
13347;SDS011;6743;49.934;9.138;2023-06-01T00:04:02;0.93;;;0.93;;
13347;SDS011;6743;49.934;9.138;2023-06-01T00:06:28;0.90;;;0.90;;
13347;SDS011;6743;49.934;9.138;2023-06-01T00:08:55;0.62;;;0.57;;
13347;SDS011;6743;49.934;9.138;2023-06-01T00:11:21;0.98;;;0.90;;
13347;SDS011;6743;49.934;9.138;2023-06-01T00:13:47;1.55;;;0.90;;
13347;SDS011;6743;49.934;9.138;2023-06-01T00:16:14;1.10;;;1.00;;
13347;SDS011;6743;49.934;9.138;2023-06-01T00:18:41;1.23;;;1.20;;
13347;SDS011;6743;49.934;9.138;2023-06-01T00:21:07;1.30;;;1.20;;
13347;SDS011;6743;49.934;9.138;2023-06-01T00:23:33;1.83;;;1.30;;
13347;SDS011;6743;49.934;9.138;2023-06-01T00:26:00;1.60;;;1.50;;
13347;SDS011;6743;49.934;9.138;2023-06-01T00:28:26;1.50;;;1.40;;
13347;SDS011;6743;49.934;9.138;2023-06-01T00:30:52;1.20;;;1.20;;
13347;SDS011;6743;49.934;9.138;2023-06-01T00:33:19;0.68;;;0.68;;
13347;SDS011;6743;49.934;9.138;2023-06-01T00:35:45;1.27;;;1.25;;
13347;SDS011;6743;49.934;9.138;2023-06-01T00:38:11;1.20;;;1.10;;
13347;SDS011;6743;49.934;9.138;2023-06-01T00:40:37;1.05;;;1.05;;
13347;SDS011;6743;49.934;9.138;2023-06-01T00:43:03;1.00;;;1.00;;
13347;SDS011;6743;49.934;9.138;2023-06-01T00:45:30;1.02;;;1.02;;
13347;SDS011;6743;49.934;9.138;2023-06-01T00:47:56;0.77;;;0.77;;
13347;SDS011;6743;49.934;9.138;2023-06-01T00:50:23;1.17;;;1.08;;
13347;SDS011;6743;49.934;9.138;2023-06-01T00:52:50;1.48;;;1.08;;
13347;SDS011;6743;49.934;9.138;2023-06-01T00:55:17;0.75;;;0.75;;
13347;SDS011;6743;49.934;9.138;2023-06-01T00:57:45;0.90;;;0.90;;
13347;SDS011;6743;49.934;9.138;2023-06-01T01:00:14;0.93;;;0.93;;
13347;SDS011;6743;49.934;9.138;2023-06-01T01:02:53;1.08;;;1.08;;
13347;SDS011;6743;49.934;9.138;2023-06-01T01:05:22;0.88;;;0.88;;
13347;SDS011;6743;49.934;9.138;2023-06-01T01:07:55;0.82;;;0.82;;
13347;SDS011;6743;49.934;9.138;2023-06-01T01:10:28;1.08;;;1.08;;
13347;SDS011;6743;49.934;9.138;2023-06-01T01:12:58;1.10;;;1.10;;
13347;SDS011;6743;49.934;9.138;2023-06-01T01:15:32;1.55;;;1.10;;
13347;SDS011;6743;49.934;9.138;2023-06-01T01:18:09;1.73;;;1.08;;
13347;SDS011;6743;49.934;9.138;2023-06-01T01:20:43;0.98;;;0.93;;
13347;SDS011;6743;49.934;9.138;2023-06-01T01:23:15;1.30;;;1.20;;
13347;SDS011;6743;49.934;9.138;2023-06-01T01:26:04;0.90;;;0.90;;
13347;SDS011;6743;49.934;9.138;2023-06-01T01:28:39;1.08;;;0.98;;
13347;SDS011;6743;49.934;9.138;2023-06-01T01:31:08;1.15;;;1.08;;
13347;SDS011;6743;49.934;9.138;2023-06-01T01:33:37;0.93;;;0.93;;
13347;SDS011;6743;49.934;9.138;2023-06-01T01:36:05;0.90;;;0.90;;
13347;SDS011;6743;49.934;9.138;2023-06-01T01:38:34;0.85;;;0.85;;
13347;SDS011;6743;49.934;9.138;2023-06-01T01:41:00;1.10;;;1.08;;
13347;SDS011;6743;49.934;9.138;2023-06-01T01:43:27;1.92;;;1.35;;
13347;SDS011;6743;49.934;9.138;2023-06-01T01:45:54;1.08;;;1.00;;
13347;SDS011;6743;49.934;9.138;2023-06-01T01:48:28;1.25;;;1.15;;
13347;SDS011;6743;49.934;9.138;2023-06-01T01:51:01;1.17;;;0.98;;
13347;SDS011;6743;49.934;9.138;2023-06-01T01:53:33;1.08;;;1.08;;
13347;SDS011;6743;49.934;9.138;2023-06-01T01:56:01;1.37;;;1.25;;
13347;SDS011;6743;49.934;9.138;2023-06-01T01:58:28;1.30;;;1.20;;
13347;SDS011;6743;49.934;9.138;2023-06-01T02:00:55;1.52;;;1.42;;
13347;SDS011;6743;49.934;9.138;2023-06-01T02:03:23;1.02;;;1.00;;
13347;SDS011;6743;49.934;9.138;2023-06-01T02:05:49;1.05;;;1.05;;
13347;SDS011;6743;49.934;9.138;2023-06-01T02:08:15;0.90;;;0.90;;
13347;SDS011;6743;49.934;9.138;2023-06-01T02:10:41;1.05;;;1.05;;
13347;SDS011;6743;49.934;9.138;2023-06-01T02:13:07;1.40;;;1.30;;
13347;SDS011;6743;49.934;9.138;2023-06-01T02:15:33;1.40;;;1.30;;
13347;SDS011;6743;49.934;9.138;2023-06-01T02:17:59;1.67;;;1.12;;
13347;SDS011;6743;49.934;9.138;2023-06-01T02:20:25;1.60;;;1.50;;
13347;SDS011;6743;49.934;9.138;2023-06-01T02:22:51;1.25;;;1.20;;
13347;SDS011;6743;49.934;9.138;2023-06-01T02:25:17;1.30;;;1.20;;
13347;SDS011;6743;49.934;9.138;2023-06-01T02:27:44;2.22;;;1.30;;
13347;SDS011;6743;49.934;9.138;2023-06-01T02:30:10;1.45;;;1.35;;
13347;SDS011;6743;49.934;9.138;2023-06-01T02:32:37;1.62;;;1.52;;
13347;SDS011;6743;49.934;9.138;2023-06-01T02:35:04;1.70;;;1.60;;
13347;SDS011;6743;49.934;9.138;2023-06-01T02:37:31;1.45;;;1.35;;
13347;SDS011;6743;49.934;9.138;2023-06-01T02:39:57;1.58;;;1.40;;
13347;SDS011;6743;49.934;9.138;2023-06-01T02:42:23;1.62;;;1.52;;
13347;SDS011;6743;49.934;9.138;2023-06-01T02:44:49;1.42;;;1.33;;
13347;SDS011;6743;49.934;9.138;2023-06-01T02:47:15;1.25;;;1.15;;
13347;SDS011;6743;49.934;9.138;2023-06-01T02:49:42;2.33;;;1.35;;
13347;SDS011;6743;49.934;9.138;2023-06-01T02:52:08;1.67;;;1.58;;
13347;SDS011;6743;49.934;9.138;2023-06-01T02:54:35;1.40;;;1.30;;
13347;SDS011;6743;49.934;9.138;2023-06-01T02:57:01;1.52;;;1.40;;
13347;SDS011;6743;49.934;9.138;2023-06-01T02:59:27;1.48;;;1.37;;
13347;SDS011;6743;49.934;9.138;2023-06-01T03:01:53;1.25;;;1.15;;
13347;SDS011;6743;49.934;9.138;2023-06-01T03:04:19;1.62;;;1.42;;
13347;SDS011;6743;49.934;9.138;2023-06-01T03:06:45;1.92;;;1.52;;
13347;SDS011;6743;49.934;9.138;2023-06-01T03:09:12;1.48;;;1.10;;
13347;SDS011;6743;49.934;9.138;2023-06-01T03:11:39;1.23;;;1.20;;
13347;SDS011;6743;49.934;9.138;2023-06-01T03:14:05;1.12;;;1.12;;
13347;SDS011;6743;49.934;9.138;2023-06-01T03:16:31;2.28;;;1.52;;
13347;SDS011;6743;49.934;9.138;2023-06-01T03:18:57;2.33;;;1.58;;
13347;SDS011;6743;49.934;9.138;2023-06-01T03:21:23;1.67;;;1.55;;
13347;SDS011;6743;49.934;9.138;2023-06-01T03:23:49;1.50;;;1.30;;
13347;SDS011;6743;49.934;9.138;2023-06-01T03:26:16;1.62;;;1.52;;
13347;SDS011;6743;49.934;9.138;2023-06-01T03:28:43;3.97;;;1.73;;
13347;SDS011;6743;49.934;9.138;2023-06-01T03:31:14;2.58;;;1.70;;
13347;SDS011;6743;49.934;9.138;2023-06-01T03:33:41;1.40;;;1.20;;
13347;SDS011;6743;49.934;9.138;2023-06-01T03:36:07;1.40;;;1.30;;
13347;SDS011;6743;49.934;9.138;2023-06-01T03:38:33;1.48;;;1.40;;
13347;SDS011;6743;49.934;9.138;2023-06-01T03:40:59;1.42;;;1.33;;
13347;SDS011;6743;49.934;9.138;2023-06-01T03:43:26;1.52;;;1.42;;
13347;SDS011;6743;49.934;9.138;2023-06-01T03:45:52;1.60;;;1.50;;
13347;SDS011;6743;49.934;9.138;2023-06-01T03:48:18;2.10;;;1.60;;
13347;SDS011;6743;49.934;9.138;2023-06-01T03:50:44;1.55;;;1.35;;
13347;SDS011;6743;49.934;9.138;2023-06-01T03:53:11;1.83;;;1.73;;
13347;SDS011;6743;49.934;9.138;2023-06-01T03:55:37;1.73;;;1.62;;
13347;SDS011;6743;49.934;9.138;2023-06-01T03:58:03;1.73;;;1.62;;
13347;SDS011;6743;49.934;9.138;2023-06-01T04:00:30;2.58;;;1.70;;
13347;SDS011;6743;49.934;9.138;2023-06-01T04:02:57;2.55;;;1.48;;
13347;SDS011;6743;49.934;9.138;2023-06-01T04:05:26;1.62;;;1.42;;
13347;SDS011;6743;49.934;9.138;2023-06-01T04:07:53;2.47;;;1.77;;
13347;SDS011;6743;49.934;9.138;2023-06-01T04:10:20;1.90;;;1.60;;
13347;SDS011;6743;49.934;9.138;2023-06-01T04:12:47;1.35;;;1.25;;
13347;SDS011;6743;49.934;9.138;2023-06-01T04:15:14;2.62;;;1.80;;
13347;SDS011;6743;49.934;9.138;2023-06-01T04:17:42;3.28;;;1.90;;
13347;SDS011;6743;49.934;9.138;2023-06-01T04:20:09;1.80;;;1.58;;
13347;SDS011;6743;49.934;9.138;2023-06-01T04:22:37;1.70;;;1.60;;
13347;SDS011;6743;49.934;9.138;2023-06-01T04:25:05;2.08;;;1.90;;
13347;SDS011;6743;49.934;9.138;2023-06-01T04:27:32;1.85;;;1.55;;
13347;SDS011;6743;49.934;9.138;2023-06-01T04:30:02;1.70;;;1.35;;
13347;SDS011;6743;49.934;9.138;2023-06-01T04:32:28;1.83;;;1.70;;
13347;SDS011;6743;49.934;9.138;2023-06-01T04:34:55;3.05;;;1.92;;
13347;SDS011;6743;49.934;9.138;2023-06-01T04:37:22;1.85;;;1.67;;
13347;SDS011;6743;49.934;9.138;2023-06-01T04:39:48;1.98;;;1.77;;
13347;SDS011;6743;49.934;9.138;2023-06-01T04:42:15;4.62;;;1.80;;
13347;SDS011;6743;49.934;9.138;2023-06-01T04:44:42;1.98;;;1.87;;
13347;SDS011;6743;49.934;9.138;2023-06-01T04:47:08;1.58;;;1.48;;
13347;SDS011;6743;49.934;9.138;2023-06-01T04:49:34;1.58;;;1.48;;
13347;SDS011;6743;49.934;9.138;2023-06-01T04:52:02;1.90;;;1.80;;
13347;SDS011;6743;49.934;9.138;2023-06-01T04:54:29;1.90;;;1.80;;
13347;SDS011;6743;49.934;9.138;2023-06-01T04:56:55;1.52;;;1.42;;
13347;SDS011;6743;49.934;9.138;2023-06-01T04:59:21;2.10;;;1.80;;
13347;SDS011;6743;49.934;9.138;2023-06-01T05:01:47;2.03;;;1.80;;
13347;SDS011;6743;49.934;9.138;2023-06-01T05:04:13;2.60;;;2.08;;
13347;SDS011;6743;49.934;9.138;2023-06-01T05:06:39;1.98;;;1.83;;
13347;SDS011;6743;49.934;9.138;2023-06-01T05:09:06;1.95;;;1.70;;
13347;SDS011;6743;49.934;9.138;2023-06-01T05:11:33;4.50;;;2.45;;
13347;SDS011;6743;49.934;9.138;2023-06-01T05:13:59;2.40;;;2.22;;
13347;SDS011;6743;49.934;9.138;2023-06-01T05:16:27;2.12;;;1.90;;
13347;SDS011;6743;49.934;9.138;2023-06-01T05:18:54;1.98;;;1.87;;
13347;SDS011;6743;49.934;9.138;2023-06-01T05:21:20;2.42;;;2.22;;
13347;SDS011;6743;49.934;9.138;2023-06-01T05:23:46;2.45;;;2.05;;
13347;SDS011;6743;49.934;9.138;2023-06-01T05:26:13;3.08;;;2.10;;
13347;SDS011;6743;49.934;9.138;2023-06-01T05:28:40;3.03;;;2.15;;
13347;SDS011;6743;49.934;9.138;2023-06-01T05:31:06;2.37;;;2.12;;
13347;SDS011;6743;49.934;9.138;2023-06-01T05:33:32;2.45;;;2.17;;
13347;SDS011;6743;49.934;9.138;2023-06-01T05:35:58;2.35;;;2.15;;
13347;SDS011;6743;49.934;9.138;2023-06-01T05:38:24;4.37;;;2.40;;
13347;SDS011;6743;49.934;9.138;2023-06-01T05:40:50;3.00;;;2.60;;
13347;SDS011;6743;49.934;9.138;2023-06-01T05:43:16;3.20;;;2.40;;
13347;SDS011;6743;49.934;9.138;2023-06-01T05:45:42;2.53;;;2.30;;
13347;SDS011;6743;49.934;9.138;2023-06-01T05:48:08;2.83;;;2.35;;
13347;SDS011;6743;49.934;9.138;2023-06-01T05:50:34;3.12;;;2.20;;
13347;SDS011;6743;49.934;9.138;2023-06-01T05:53:00;2.55;;;2.33;;
13347;SDS011;6743;49.934;9.138;2023-06-01T05:55:26;2.58;;;1.87;;
13347;SDS011;6743;49.934;9.138;2023-06-01T05:57:52;2.85;;;1.83;;
13347;SDS011;6743;49.934;9.138;2023-06-01T06:00:19;3.85;;;2.37;;
13347;SDS011;6743;49.934;9.138;2023-06-01T06:02:45;1.80;;;1.70;;
13347;SDS011;6743;49.934;9.138;2023-06-01T06:05:11;3.05;;;1.85;;
13347;SDS011;6743;49.934;9.138;2023-06-01T06:07:38;3.08;;;2.33;;
13347;SDS011;6743;49.934;9.138;2023-06-01T06:10:04;2.37;;;2.17;;
13347;SDS011;6743;49.934;9.138;2023-06-01T06:12:31;2.92;;;2.35;;
13347;SDS011;6743;49.934;9.138;2023-06-01T06:14:57;2.47;;;2.28;;
13347;SDS011;6743;49.934;9.138;2023-06-01T06:17:24;2.70;;;2.50;;
13347;SDS011;6743;49.934;9.138;2023-06-01T06:19:50;3.30;;;2.37;;
13347;SDS011;6743;49.934;9.138;2023-06-01T06:22:16;2.72;;;2.00;;
13347;SDS011;6743;49.934;9.138;2023-06-01T06:24:42;3.70;;;2.05;;
13347;SDS011;6743;49.934;9.138;2023-06-01T06:27:08;2.55;;;2.00;;
13347;SDS011;6743;49.934;9.138;2023-06-01T06:29:34;2.45;;;2.15;;
13347;SDS011;6743;49.934;9.138;2023-06-01T06:32:00;2.90;;;1.95;;
13347;SDS011;6743;49.934;9.138;2023-06-01T06:34:28;3.70;;;2.28;;
13347;SDS011;6743;49.934;9.138;2023-06-01T06:37:00;2.80;;;2.35;;
13347;SDS011;6743;49.934;9.138;2023-06-01T06:39:27;2.97;;;2.55;;
13347;SDS011;6743;49.934;9.138;2023-06-01T06:41:53;2.42;;;2.22;;
13347;SDS011;6743;49.934;9.138;2023-06-01T06:44:19;2.30;;;2.08;;
13347;SDS011;6743;49.934;9.138;2023-06-01T06:46:45;2.17;;;2.00;;
13347;SDS011;6743;49.934;9.138;2023-06-01T06:49:11;2.50;;;2.30;;
13347;SDS011;6743;49.934;9.138;2023-06-01T06:51:38;3.35;;;2.22;;
13347;SDS011;6743;49.934;9.138;2023-06-01T06:54:04;2.42;;;2.17;;
13347;SDS011;6743;49.934;9.138;2023-06-01T06:56:31;2.40;;;2.20;;
13347;SDS011;6743;49.934;9.138;2023-06-01T06:58:57;2.60;;;1.90;;
13347;SDS011;6743;49.934;9.138;2023-06-01T07:01:23;2.35;;;2.15;;
13347;SDS011;6743;49.934;9.138;2023-06-01T07:03:52;2.70;;;1.87;;
13347;SDS011;6743;49.934;9.138;2023-06-01T07:06:18;1.87;;;1.77;;
13347;SDS011;6743;49.934;9.138;2023-06-01T07:08:45;2.92;;;2.30;;
13347;SDS011;6743;49.934;9.138;2023-06-01T07:11:11;2.28;;;1.45;;
13347;SDS011;6743;49.934;9.138;2023-06-01T07:13:38;3.30;;;2.20;;
13347;SDS011;6743;49.934;9.138;2023-06-01T07:16:06;4.25;;;1.83;;
13347;SDS011;6743;49.934;9.138;2023-06-01T07:18:32;2.03;;;1.77;;
13347;SDS011;6743;49.934;9.138;2023-06-01T07:20:58;1.70;;;1.60;;
13347;SDS011;6743;49.934;9.138;2023-06-01T07:23:24;2.55;;;2.05;;
13347;SDS011;6743;49.934;9.138;2023-06-01T07:25:51;2.20;;;2.00;;
13347;SDS011;6743;49.934;9.138;2023-06-01T07:28:17;1.48;;;1.37;;
13347;SDS011;6743;49.934;9.138;2023-06-01T07:30:46;1.80;;;1.70;;
13347;SDS011;6743;49.934;9.138;2023-06-01T07:33:12;1.80;;;1.70;;
13347;SDS011;6743;49.934;9.138;2023-06-01T07:35:38;2.53;;;2.00;;
13347;SDS011;6743;49.934;9.138;2023-06-01T07:38:05;1.85;;;1.70;;
13347;SDS011;6743;49.934;9.138;2023-06-01T07:40:32;1.65;;;1.55;;
13347;SDS011;6743;49.934;9.138;2023-06-01T07:42:59;1.92;;;1.83;;
13347;SDS011;6743;49.934;9.138;2023-06-01T07:45:25;2.20;;;2.00;;
13347;SDS011;6743;49.934;9.138;2023-06-01T07:47:51;3.20;;;1.80;;
13347;SDS011;6743;49.934;9.138;2023-06-01T07:50:18;2.03;;;1.73;;
13347;SDS011;6743;49.934;9.138;2023-06-01T07:52:44;1.83;;;1.73;;
13347;SDS011;6743;49.934;9.138;2023-06-01T07:55:10;2.55;;;1.52;;
13347;SDS011;6743;49.934;9.138;2023-06-01T07:57:37;1.65;;;1.50;;
13347;SDS011;6743;49.934;9.138;2023-06-01T08:00:04;1.50;;;1.40;;
13347;SDS011;6743;49.934;9.138;2023-06-01T08:02:37;2.12;;;1.80;;
13347;SDS011;6743;49.934;9.138;2023-06-01T08:05:06;1.52;;;1.42;;
13347;SDS011;6743;49.934;9.138;2023-06-01T08:07:32;1.67;;;1.42;;
13347;SDS011;6743;49.934;9.138;2023-06-01T08:09:58;2.15;;;1.60;;
13347;SDS011;6743;49.934;9.138;2023-06-01T08:12:24;1.75;;;1.60;;
13347;SDS011;6743;49.934;9.138;2023-06-01T08:14:51;1.50;;;1.40;;
13347;SDS011;6743;49.934;9.138;2023-06-01T08:17:17;2.37;;;1.50;;
13347;SDS011;6743;49.934;9.138;2023-06-01T08:19:44;2.08;;;1.87;;
13347;SDS011;6743;49.934;9.138;2023-06-01T08:22:14;1.50;;;1.40;;
13347;SDS011;6743;49.934;9.138;2023-06-01T08:24:40;2.15;;;1.65;;
13347;SDS011;6743;49.934;9.138;2023-06-01T08:27:15;1.48;;;1.37;;
13347;SDS011;6743;49.934;9.138;2023-06-01T08:29:42;1.58;;;1.48;;
13347;SDS011;6743;49.934;9.138;2023-06-01T08:32:08;2.03;;;1.52;;
13347;SDS011;6743;49.934;9.138;2023-06-01T08:34:35;1.48;;;1.35;;
13347;SDS011;6743;49.934;9.138;2023-06-01T08:37:01;1.33;;;1.23;;
13347;SDS011;6743;49.934;9.138;2023-06-01T08:39:28;2.15;;;1.70;;
13347;SDS011;6743;49.934;9.138;2023-06-01T08:41:58;2.45;;;1.85;;
13347;SDS011;6743;49.934;9.138;2023-06-01T08:44:33;2.37;;;1.20;;
13347;SDS011;6743;49.934;9.138;2023-06-01T08:47:02;1.42;;;1.33;;
13347;SDS011;6743;49.934;9.138;2023-06-01T08:49:29;2.80;;;1.42;;
13347;SDS011;6743;49.934;9.138;2023-06-01T08:51:56;1.30;;;1.20;;
13347;SDS011;6743;49.934;9.138;2023-06-01T08:54:25;1.48;;;1.20;;
13347;SDS011;6743;49.934;9.138;2023-06-01T08:56:52;3.03;;;1.60;;
13347;SDS011;6743;49.934;9.138;2023-06-01T08:59:19;1.52;;;1.12;;
13347;SDS011;6743;49.934;9.138;2023-06-01T09:01:45;1.23;;;1.20;;
13347;SDS011;6743;49.934;9.138;2023-06-01T09:04:12;1.65;;;1.40;;
13347;SDS011;6743;49.934;9.138;2023-06-01T09:06:38;1.15;;;1.05;;
13347;SDS011;6743;49.934;9.138;2023-06-01T09:09:07;1.83;;;1.23;;
13347;SDS011;6743;49.934;9.138;2023-06-01T09:11:36;1.58;;;1.48;;
13347;SDS011;6743;49.934;9.138;2023-06-01T09:14:02;1.30;;;1.20;;
13347;SDS011;6743;49.934;9.138;2023-06-01T09:16:46;0.85;;;0.85;;
13347;SDS011;6743;49.934;9.138;2023-06-01T09:19:12;1.02;;;1.00;;
13347;SDS011;6743;49.934;9.138;2023-06-01T09:21:38;1.77;;;1.27;;
13347;SDS011;6743;49.934;9.138;2023-06-01T09:24:20;0.93;;;0.93;;
13347;SDS011;6743;49.934;9.138;2023-06-01T09:26:47;1.15;;;1.15;;
13347;SDS011;6743;49.934;9.138;2023-06-01T09:29:14;1.40;;;1.10;;
13347;SDS011;6743;49.934;9.138;2023-06-01T09:31:40;1.70;;;1.35;;
13347;SDS011;6743;49.934;9.138;2023-06-01T09:34:07;0.95;;;0.95;;
13347;SDS011;6743;49.934;9.138;2023-06-01T09:36:34;0.80;;;0.80;;
13347;SDS011;6743;49.934;9.138;2023-06-01T09:39:02;1.40;;;1.30;;
13347;SDS011;6743;49.934;9.138;2023-06-01T09:41:44;1.00;;;1.00;;
13347;SDS011;6743;49.934;9.138;2023-06-01T09:44:11;1.15;;;1.15;;
13347;SDS011;6743;49.934;9.138;2023-06-01T09:46:45;1.10;;;1.00;;
13347;SDS011;6743;49.934;9.138;2023-06-01T09:49:11;1.25;;;1.15;;
13347;SDS011;6743;49.934;9.138;2023-06-01T09:51:44;0.90;;;0.90;;
13347;SDS011;6743;49.934;9.138;2023-06-01T09:54:12;1.10;;;1.10;;
13347;SDS011;6743;49.934;9.138;2023-06-01T09:56:47;0.98;;;0.98;;
13347;SDS011;6743;49.934;9.138;2023-06-01T09:59:14;1.42;;;1.02;;
13347;SDS011;6743;49.934;9.138;2023-06-01T10:01:40;0.98;;;0.93;;
13347;SDS011;6743;49.934;9.138;2023-06-01T10:04:07;1.00;;;1.00;;
13347;SDS011;6743;49.934;9.138;2023-06-01T10:06:39;0.90;;;0.90;;
13347;SDS011;6743;49.934;9.138;2023-06-01T10:09:05;1.60;;;1.50;;
13347;SDS011;6743;49.934;9.138;2023-06-01T10:11:34;1.00;;;1.00;;
13347;SDS011;6743;49.934;9.138;2023-06-01T10:14:01;1.27;;;1.12;;
13347;SDS011;6743;49.934;9.138;2023-06-01T10:16:28;1.00;;;0.90;;
13347;SDS011;6743;49.934;9.138;2023-06-01T10:18:54;1.33;;;1.23;;
13347;SDS011;6743;49.934;9.138;2023-06-01T10:21:20;1.15;;;1.05;;
13347;SDS011;6743;49.934;9.138;2023-06-01T10:23:47;1.20;;;1.20;;
13347;SDS011;6743;49.934;9.138;2023-06-01T10:26:13;0.98;;;0.98;;
13347;SDS011;6743;49.934;9.138;2023-06-01T10:28:41;0.65;;;0.65;;
13347;SDS011;6743;49.934;9.138;2023-06-01T10:33:59;1.00;;;1.00;;
13347;SDS011;6743;49.934;9.138;2023-06-01T10:36:31;1.02;;;0.93;;
13347;SDS011;6743;49.934;9.138;2023-06-01T10:39:35;0.82;;;0.82;;
13347;SDS011;6743;49.934;9.138;2023-06-01T10:45:02;0.82;;;0.82;;
13347;SDS011;6743;49.934;9.138;2023-06-01T10:47:46;0.70;;;0.70;;
13347;SDS011;6743;49.934;9.138;2023-06-01T10:50:19;0.98;;;0.95;;
13347;SDS011;6743;49.934;9.138;2023-06-01T10:52:45;1.00;;;0.95;;
13347;SDS011;6743;49.934;9.138;2023-06-01T10:55:18;0.93;;;0.93;;
13347;SDS011;6743;49.934;9.138;2023-06-01T10:57:46;1.12;;;1.02;;
13347;SDS011;6743;49.934;9.138;2023-06-01T11:00:17;1.60;;;0.90;;
13347;SDS011;6743;49.934;9.138;2023-06-01T11:02:49;0.85;;;0.85;;
13347;SDS011;6743;49.934;9.138;2023-06-01T11:05:33;1.45;;;0.80;;
13347;SDS011;6743;49.934;9.138;2023-06-01T11:08:03;1.12;;;1.08;;
13347;SDS011;6743;49.934;9.138;2023-06-01T11:13:25;1.08;;;1.00;;
13347;SDS011;6743;49.934;9.138;2023-06-01T11:18:54;0.90;;;0.90;;
13347;SDS011;6743;49.934;9.138;2023-06-01T11:21:24;0.62;;;0.62;;
13347;SDS011;6743;49.934;9.138;2023-06-01T11:23:51;1.27;;;1.05;;
13347;SDS011;6743;49.934;9.138;2023-06-01T11:26:20;0.90;;;0.90;;
13347;SDS011;6743;49.934;9.138;2023-06-01T11:28:47;2.72;;;1.00;;
13347;SDS011;6743;49.934;9.138;2023-06-01T11:31:14;1.02;;;0.93;;
13347;SDS011;6743;49.934;9.138;2023-06-01T11:33:45;3.15;;;1.10;;
13347;SDS011;6743;49.934;9.138;2023-06-01T11:36:18;2.35;;;1.10;;
13347;SDS011;6743;49.934;9.138;2023-06-01T11:38:45;1.15;;;1.05;;
13347;SDS011;6743;49.934;9.138;2023-06-01T11:41:14;0.80;;;0.80;;
13347;SDS011;6743;49.934;9.138;2023-06-01T11:43:40;1.30;;;1.20;;
13347;SDS011;6743;49.934;9.138;2023-06-01T11:46:06;1.08;;;0.98;;
13347;SDS011;6743;49.934;9.138;2023-06-01T11:48:34;1.12;;;1.02;;
13347;SDS011;6743;49.934;9.138;2023-06-01T11:51:01;0.95;;;0.75;;
13347;SDS011;6743;49.934;9.138;2023-06-01T11:53:28;0.80;;;0.80;;
13347;SDS011;6743;49.934;9.138;2023-06-01T11:55:56;0.88;;;0.88;;
13347;SDS011;6743;49.934;9.138;2023-06-01T11:58:22;1.12;;;1.10;;
13347;SDS011;6743;49.934;9.138;2023-06-01T12:00:48;0.98;;;0.98;;
13347;SDS011;6743;49.934;9.138;2023-06-01T12:03:14;0.80;;;0.80;;
13347;SDS011;6743;49.934;9.138;2023-06-01T12:05:41;1.27;;;1.17;;
13347;SDS011;6743;49.934;9.138;2023-06-01T12:08:14;0.68;;;0.68;;
13347;SDS011;6743;49.934;9.138;2023-06-01T12:10:43;2.05;;;1.00;;
13347;SDS011;6743;49.934;9.138;2023-06-01T12:13:14;1.12;;;1.02;;
13347;SDS011;6743;49.934;9.138;2023-06-01T12:15:41;1.58;;;1.08;;
13347;SDS011;6743;49.934;9.138;2023-06-01T12:18:07;0.88;;;0.88;;
13347;SDS011;6743;49.934;9.138;2023-06-01T12:20:34;0.85;;;0.85;;
13347;SDS011;6743;49.934;9.138;2023-06-01T12:23:02;1.27;;;1.08;;
13347;SDS011;6743;49.934;9.138;2023-06-01T12:25:37;0.90;;;0.90;;
13347;SDS011;6743;49.934;9.138;2023-06-01T12:28:14;1.08;;;1.08;;
13347;SDS011;6743;49.934;9.138;2023-06-01T12:30:40;0.95;;;0.95;;
13347;SDS011;6743;49.934;9.138;2023-06-01T12:33:06;1.62;;;1.10;;
13347;SDS011;6743;49.934;9.138;2023-06-01T12:35:32;1.55;;;1.10;;
13347;SDS011;6743;49.934;9.138;2023-06-01T12:38:02;0.98;;;0.98;;
13347;SDS011;6743;49.934;9.138;2023-06-01T12:40:28;1.23;;;1.00;;
13347;SDS011;6743;49.934;9.138;2023-06-01T12:42:54;0.95;;;0.95;;
13347;SDS011;6743;49.934;9.138;2023-06-01T12:45:21;0.90;;;0.90;;
13347;SDS011;6743;49.934;9.138;2023-06-01T12:47:47;0.80;;;0.80;;
13347;SDS011;6743;49.934;9.138;2023-06-01T12:50:13;0.88;;;0.88;;
13347;SDS011;6743;49.934;9.138;2023-06-01T12:52:40;0.98;;;0.90;;
13347;SDS011;6743;49.934;9.138;2023-06-01T12:55:07;0.90;;;0.85;;
13347;SDS011;6743;49.934;9.138;2023-06-01T12:57:34;1.05;;;1.05;;
13347;SDS011;6743;49.934;9.138;2023-06-01T13:00:01;1.00;;;0.90;;
13347;SDS011;6743;49.934;9.138;2023-06-01T13:02:30;0.88;;;0.88;;
13347;SDS011;6743;49.934;9.138;2023-06-01T13:04:56;1.05;;;0.93;;
13347;SDS011;6743;49.934;9.138;2023-06-01T13:07:22;1.90;;;1.10;;
13347;SDS011;6743;49.934;9.138;2023-06-01T13:09:48;1.20;;;1.10;;
13347;SDS011;6743;49.934;9.138;2023-06-01T13:12:15;0.85;;;0.80;;
13347;SDS011;6743;49.934;9.138;2023-06-01T13:14:41;0.88;;;0.88;;
13347;SDS011;6743;49.934;9.138;2023-06-01T13:17:07;1.35;;;1.10;;
13347;SDS011;6743;49.934;9.138;2023-06-01T13:19:34;2.15;;;1.10;;
13347;SDS011;6743;49.934;9.138;2023-06-01T13:22:00;1.05;;;0.95;;
13347;SDS011;6743;49.934;9.138;2023-06-01T13:24:26;1.40;;;1.05;;
13347;SDS011;6743;49.934;9.138;2023-06-01T13:26:52;1.70;;;1.02;;
13347;SDS011;6743;49.934;9.138;2023-06-01T13:29:18;1.00;;;0.80;;
13347;SDS011;6743;49.934;9.138;2023-06-01T13:31:44;0.98;;;0.98;;
13347;SDS011;6743;49.934;9.138;2023-06-01T13:34:10;1.00;;;1.00;;
13347;SDS011;6743;49.934;9.138;2023-06-01T13:36:37;0.90;;;0.90;;
13347;SDS011;6743;49.934;9.138;2023-06-01T13:39:03;1.02;;;0.70;;
13347;SDS011;6743;49.934;9.138;2023-06-01T13:41:29;1.20;;;1.10;;
13347;SDS011;6743;49.934;9.138;2023-06-01T13:43:55;0.70;;;0.70;;
13347;SDS011;6743;49.934;9.138;2023-06-01T13:46:21;0.80;;;0.80;;
13347;SDS011;6743;49.934;9.138;2023-06-01T13:48:47;0.90;;;0.90;;
13347;SDS011;6743;49.934;9.138;2023-06-01T13:51:13;0.77;;;0.77;;
13347;SDS011;6743;49.934;9.138;2023-06-01T13:53:40;0.77;;;0.77;;
13347;SDS011;6743;49.934;9.138;2023-06-01T13:56:06;0.70;;;0.70;;
13347;SDS011;6743;49.934;9.138;2023-06-01T13:58:32;0.82;;;0.82;;
13347;SDS011;6743;49.934;9.138;2023-06-01T14:00:59;1.02;;;1.00;;
13347;SDS011;6743;49.934;9.138;2023-06-01T14:03:25;1.23;;;0.85;;
13347;SDS011;6743;49.934;9.138;2023-06-01T14:05:51;0.70;;;0.70;;
13347;SDS011;6743;49.934;9.138;2023-06-01T14:08:17;0.85;;;0.82;;
13347;SDS011;6743;49.934;9.138;2023-06-01T14:10:43;1.00;;;1.00;;
13347;SDS011;6743;49.934;9.138;2023-06-01T14:13:09;0.95;;;0.95;;
13347;SDS011;6743;49.934;9.138;2023-06-01T14:15:35;1.00;;;0.80;;
13347;SDS011;6743;49.934;9.138;2023-06-01T14:18:01;0.95;;;0.82;;
13347;SDS011;6743;49.934;9.138;2023-06-01T14:20:28;1.40;;;1.02;;
13347;SDS011;6743;49.934;9.138;2023-06-01T14:22:54;1.37;;;1.20;;
13347;SDS011;6743;49.934;9.138;2023-06-01T14:25:20;1.15;;;1.08;;
13347;SDS011;6743;49.934;9.138;2023-06-01T14:27:46;1.00;;;1.00;;
13347;SDS011;6743;49.934;9.138;2023-06-01T14:30:12;0.82;;;0.82;;
13347;SDS011;6743;49.934;9.138;2023-06-01T14:32:38;0.82;;;0.82;;
13347;SDS011;6743;49.934;9.138;2023-06-01T14:35:05;0.98;;;0.75;;
13347;SDS011;6743;49.934;9.138;2023-06-01T14:37:31;1.00;;;1.00;;
13347;SDS011;6743;49.934;9.138;2023-06-01T14:39:57;0.90;;;0.90;;
13347;SDS011;6743;49.934;9.138;2023-06-01T14:42:23;0.70;;;0.70;;
13347;SDS011;6743;49.934;9.138;2023-06-01T14:44:50;1.17;;;1.10;;
13347;SDS011;6743;49.934;9.138;2023-06-01T14:47:16;0.93;;;0.93;;
13347;SDS011;6743;49.934;9.138;2023-06-01T14:49:42;0.70;;;0.70;;
13347;SDS011;6743;49.934;9.138;2023-06-01T14:52:08;1.65;;;0.98;;
13347;SDS011;6743;49.934;9.138;2023-06-01T14:54:34;1.15;;;1.10;;
13347;SDS011;6743;49.934;9.138;2023-06-01T14:57:00;0.80;;;0.80;;
13347;SDS011;6743;49.934;9.138;2023-06-01T14:59:26;0.88;;;0.80;;
13347;SDS011;6743;49.934;9.138;2023-06-01T15:01:53;1.10;;;1.10;;
13347;SDS011;6743;49.934;9.138;2023-06-01T15:04:19;1.30;;;0.82;;
13347;SDS011;6743;49.934;9.138;2023-06-01T15:06:45;1.55;;;0.85;;
13347;SDS011;6743;49.934;9.138;2023-06-01T15:09:11;1.08;;;1.00;;
13347;SDS011;6743;49.934;9.138;2023-06-01T15:11:37;0.82;;;0.82;;
13347;SDS011;6743;49.934;9.138;2023-06-01T15:14:03;1.55;;;1.10;;